createdAt,value
2023-12-03T00:00:23.466Z,4.80
2023-12-03T00:02:25.655Z,4.80
2023-12-03T00:04:27.539Z,4.80
2023-12-03T00:06:29.540Z,4.70
2023-12-03T00:08:44.486Z,4.70
2023-12-03T00:10:51.693Z,4.70
2023-12-03T00:12:53.590Z,4.70
2023-12-03T00:14:55.428Z,4.70
2023-12-03T00:16:57.181Z,4.70
2023-12-03T00:18:59.034Z,4.60
2023-12-03T00:21:01.638Z,4.60
2023-12-03T00:23:04.289Z,4.60
2023-12-03T00:25:06.379Z,4.60
2023-12-03T00:27:08.328Z,4.60
2023-12-03T00:29:11.347Z,4.70
2023-12-03T00:31:13.041Z,4.70
2023-12-03T00:33:14.810Z,4.70
2023-12-03T00:35:16.530Z,4.70
2023-12-03T00:37:18.361Z,4.70
2023-12-03T00:39:20.147Z,4.70
2023-12-03T00:41:22.035Z,4.70
2023-12-03T00:43:23.733Z,4.70
2023-12-03T00:45:25.454Z,4.70
2023-12-03T00:47:27.648Z,4.70
2023-12-03T00:49:29.670Z,4.70
2023-12-03T00:51:31.555Z,4.70
2023-12-03T00:53:33.287Z,4.70
2023-12-03T00:55:35.319Z,4.70
2023-12-03T00:57:37.149Z,4.70
2023-12-03T00:59:38.823Z,4.70
2023-12-03T01:01:40.633Z,4.80
2023-12-03T01:03:42.447Z,4.80
2023-12-03T01:05:44.292Z,4.80
2023-12-03T01:07:46.114Z,4.80
2023-12-03T01:09:47.912Z,4.80
2023-12-03T01:11:49.675Z,4.80
2023-12-03T01:13:51.590Z,4.80
2023-12-03T01:15:53.321Z,4.80
2023-12-03T01:17:55.099Z,4.80
2023-12-03T01:19:56.824Z,4.80
2023-12-03T01:21:58.526Z,4.80
2023-12-03T01:24:00.202Z,4.80
2023-12-03T01:26:01.946Z,4.80
2023-12-03T01:28:03.782Z,4.80
2023-12-03T01:30:05.843Z,4.80
2023-12-03T01:32:07.661Z,4.80
2023-12-03T01:34:09.401Z,4.80
2023-12-03T01:36:11.232Z,4.80
2023-12-03T01:38:12.929Z,4.70
2023-12-03T01:40:14.684Z,4.80
2023-12-03T01:42:16.501Z,4.70
2023-12-03T01:44:18.186Z,4.70
2023-12-03T01:46:20.317Z,4.70
2023-12-03T01:48:22.226Z,4.70
2023-12-03T01:50:24.544Z,4.70
2023-12-03T01:52:28.742Z,4.70
2023-12-03T01:54:34.435Z,4.70
2023-12-03T01:56:36.160Z,4.80
2023-12-03T01:58:37.840Z,4.80
2023-12-03T02:00:39.928Z,4.80
2023-12-03T02:02:47.595Z,4.80
2023-12-03T02:04:49.473Z,4.80
2023-12-03T02:06:51.231Z,4.80
2023-12-03T02:08:53.422Z,4.80
2023-12-03T02:10:55.264Z,4.80
2023-12-03T02:12:59.211Z,4.80
2023-12-03T02:15:01.005Z,4.80
2023-12-03T02:17:03.554Z,4.80
2023-12-03T02:19:05.364Z,4.80
2023-12-03T02:21:08.505Z,4.90
2023-12-03T02:23:10.258Z,4.80
2023-12-03T02:25:11.981Z,4.90
2023-12-03T02:27:13.708Z,4.80
2023-12-03T02:29:15.537Z,4.80
2023-12-03T02:31:17.334Z,4.80
2023-12-03T02:33:19.167Z,4.90
2023-12-03T02:35:20.923Z,4.90
2023-12-03T02:37:22.631Z,4.80
2023-12-03T02:39:24.420Z,4.80
2023-12-03T02:41:26.299Z,4.80
2023-12-03T02:43:28.038Z,4.80
2023-12-03T02:45:29.749Z,4.80
2023-12-03T02:47:31.564Z,4.80
2023-12-03T02:49:34.407Z,4.80
2023-12-03T02:51:36.288Z,4.80
2023-12-03T02:53:38.250Z,4.80
2023-12-03T02:55:39.973Z,4.80
2023-12-03T02:57:41.750Z,4.80
2023-12-03T02:59:43.471Z,4.80
2023-12-03T03:01:45.219Z,4.80
2023-12-03T03:03:47.103Z,4.80
2023-12-03T03:05:48.988Z,4.80
2023-12-03T03:07:50.773Z,4.80
2023-12-03T03:09:52.507Z,4.80
2023-12-03T03:11:54.940Z,4.80
2023-12-03T03:13:56.680Z,4.80
2023-12-03T03:15:58.344Z,4.80
2023-12-03T03:18:00.090Z,4.80
2023-12-03T03:20:02.022Z,4.80
2023-12-03T03:22:03.846Z,4.80
2023-12-03T03:24:05.731Z,4.80
2023-12-03T03:26:07.507Z,4.80
2023-12-03T03:28:09.271Z,4.80
2023-12-03T03:30:11.298Z,4.80
2023-12-03T03:32:12.985Z,4.80
2023-12-03T03:34:14.796Z,4.80
2023-12-03T03:36:17.138Z,4.80
2023-12-03T03:38:18.906Z,4.70
2023-12-03T03:40:20.665Z,4.70
2023-12-03T03:42:22.413Z,4.70
2023-12-03T03:44:24.165Z,4.70
2023-12-03T03:46:25.869Z,4.60
2023-12-03T03:48:27.771Z,4.60
2023-12-03T03:50:29.500Z,4.60
2023-12-03T03:52:31.269Z,4.60
2023-12-03T03:54:33.042Z,4.50
2023-12-03T03:56:34.760Z,4.50
2023-12-03T03:58:39.544Z,4.50
2023-12-03T04:00:41.421Z,4.40
2023-12-03T04:02:43.228Z,4.40
2023-12-03T04:04:45.142Z,4.40
2023-12-03T04:06:47.106Z,4.40
2023-12-03T04:08:49.859Z,4.40
2023-12-03T04:10:51.578Z,4.40
2023-12-03T04:12:53.317Z,4.40
2023-12-03T04:14:55.068Z,4.50
2023-12-03T04:16:59.968Z,4.40
2023-12-03T04:19:02.266Z,4.40
2023-12-03T04:21:04.137Z,4.40
2023-12-03T04:23:05.846Z,4.40
2023-12-03T04:25:08.118Z,4.40
2023-12-03T04:27:09.820Z,4.40
2023-12-03T04:29:11.628Z,4.30
2023-12-03T04:31:17.518Z,4.30
2023-12-03T04:33:19.240Z,4.30
2023-12-03T04:35:21.021Z,4.30
2023-12-03T04:37:22.772Z,4.20
2023-12-03T04:39:24.534Z,4.20
2023-12-03T04:41:34.249Z,4.20
2023-12-03T04:43:36.006Z,4.20
2023-12-03T04:45:37.851Z,4.20
2023-12-03T04:47:39.632Z,4.20
2023-12-03T04:49:41.432Z,4.30
2023-12-03T04:51:43.176Z,4.30
2023-12-03T04:53:44.880Z,4.30
2023-12-03T04:55:46.572Z,4.30
2023-12-03T04:57:48.423Z,4.30
2023-12-03T04:59:50.172Z,4.40
2023-12-03T05:01:51.928Z,4.40
2023-12-03T05:03:53.699Z,4.40
2023-12-03T05:05:55.463Z,4.50
2023-12-03T05:07:57.344Z,4.50
2023-12-03T05:09:59.300Z,4.50
2023-12-03T05:12:01.002Z,4.50
2023-12-03T05:14:02.755Z,4.50
2023-12-03T05:16:07.646Z,4.40
2023-12-03T05:18:09.496Z,4.40
2023-12-03T05:20:11.524Z,4.40
2023-12-03T05:22:13.249Z,4.40
2023-12-03T05:24:15.045Z,4.40
2023-12-03T05:26:16.840Z,4.40
2023-12-03T05:28:18.770Z,4.40
2023-12-03T05:30:20.558Z,4.40
2023-12-03T05:32:22.288Z,4.40
2023-12-03T05:34:24.788Z,4.30
2023-12-03T05:36:26.774Z,4.40
2023-12-03T05:38:28.545Z,4.40
2023-12-03T05:40:30.249Z,4.40
2023-12-03T05:42:32.123Z,4.40
2023-12-03T05:44:33.977Z,4.40
2023-12-03T05:46:41.455Z,4.40
2023-12-03T05:48:43.909Z,4.40
2023-12-03T05:50:45.724Z,4.40
2023-12-03T05:52:47.437Z,4.40
2023-12-03T05:54:49.324Z,4.40
2023-12-03T05:56:51.064Z,4.40
2023-12-03T05:58:52.779Z,4.40
2023-12-03T06:00:54.543Z,4.40
2023-12-03T06:02:56.321Z,4.40
2023-12-03T06:04:58.140Z,4.40
2023-12-03T06:07:00.026Z,4.40
2023-12-03T06:09:02.185Z,4.40
2023-12-03T06:11:04.038Z,4.40
2023-12-03T06:13:05.812Z,4.40
2023-12-03T06:15:08.582Z,4.40
2023-12-03T06:17:10.333Z,4.40
2023-12-03T06:19:12.183Z,4.40
2023-12-03T06:21:14.003Z,4.40
2023-12-03T06:23:17.641Z,4.40
2023-12-03T06:25:20.675Z,4.40
2023-12-03T06:27:22.524Z,4.30
2023-12-03T06:29:24.254Z,4.30
2023-12-03T06:31:25.984Z,4.30
2023-12-03T06:33:28.019Z,4.30
2023-12-03T06:35:29.846Z,4.30
2023-12-03T06:37:31.556Z,4.30
2023-12-03T06:39:33.486Z,4.20
2023-12-03T06:41:35.384Z,4.20
2023-12-03T06:43:37.161Z,4.20
2023-12-03T06:45:39.031Z,4.20
2023-12-03T06:47:40.907Z,4.20
2023-12-03T06:49:42.971Z,4.20
2023-12-03T06:51:44.691Z,4.20
2023-12-03T06:53:46.437Z,4.20
2023-12-03T06:55:48.143Z,4.20
2023-12-03T06:57:49.931Z,4.20
2023-12-03T06:59:51.667Z,4.20
2023-12-03T07:01:53.398Z,4.10
2023-12-03T07:03:55.147Z,4.10
2023-12-03T07:05:57.236Z,4.20
2023-12-03T07:07:59.067Z,4.10
2023-12-03T07:10:00.868Z,4.10
2023-12-03T07:12:02.674Z,4.10
2023-12-03T07:14:04.359Z,4.10
2023-12-03T07:16:07.181Z,4.10
2023-12-03T07:18:08.925Z,4.10
2023-12-03T07:20:10.982Z,4.00
2023-12-03T07:22:12.809Z,4.10
2023-12-03T07:24:14.555Z,4.00
2023-12-03T07:26:16.298Z,4.00
2023-12-03T07:28:18.004Z,4.00
2023-12-03T07:30:19.763Z,4.00
2023-12-03T07:32:21.463Z,3.90
2023-12-03T07:34:23.281Z,4.00
2023-12-03T07:36:26.770Z,3.90
2023-12-03T07:38:29.483Z,3.90
2023-12-03T07:40:31.246Z,3.90
2023-12-03T07:42:33.004Z,3.90
2023-12-03T07:44:34.967Z,3.80
2023-12-03T07:46:36.655Z,3.80
2023-12-03T07:48:38.458Z,3.90
2023-12-03T07:50:41.562Z,3.80
2023-12-03T07:52:43.665Z,3.80
2023-12-03T07:54:48.362Z,3.80
2023-12-03T07:56:50.129Z,3.80
2023-12-03T07:58:51.812Z,3.80
2023-12-03T08:00:53.559Z,3.80
2023-12-03T08:02:55.767Z,3.70
2023-12-03T08:04:57.688Z,3.70
2023-12-03T08:06:59.552Z,3.70
2023-12-03T08:09:01.599Z,3.70
2023-12-03T08:11:03.862Z,3.70
2023-12-03T08:13:05.626Z,3.70
2023-12-03T08:15:07.494Z,3.70
2023-12-03T08:17:13.327Z,3.70
2023-12-03T08:19:15.089Z,3.70
2023-12-03T08:21:17.069Z,3.70
2023-12-03T08:23:18.878Z,3.70
2023-12-03T08:25:20.635Z,3.70
2023-12-03T08:27:22.376Z,3.60
2023-12-03T08:29:24.173Z,3.70
2023-12-03T08:31:25.930Z,3.70
2023-12-03T08:33:27.772Z,3.70
2023-12-03T08:35:29.810Z,3.70
2023-12-03T08:37:31.509Z,3.70
2023-12-03T08:39:33.327Z,3.70
2023-12-03T08:41:36.093Z,3.70
2023-12-03T08:43:37.777Z,3.70
2023-12-03T08:45:40.016Z,3.70
2023-12-03T08:47:42.552Z,3.70
2023-12-03T08:49:44.340Z,3.80
2023-12-03T08:51:46.181Z,3.80
2023-12-03T08:53:49.053Z,3.80
2023-12-03T08:55:51.606Z,3.80
2023-12-03T08:57:55.541Z,3.90
2023-12-03T08:59:59.025Z,3.90
2023-12-03T09:02:01.924Z,3.90
2023-12-03T09:04:04.985Z,3.90
2023-12-03T09:06:08.464Z,3.90
2023-12-03T09:08:10.970Z,4.00
2023-12-03T09:10:13.528Z,4.00
2023-12-03T09:12:17.718Z,4.00
2023-12-03T09:14:20.280Z,4.10
2023-12-03T09:16:22.913Z,4.10
2023-12-03T09:18:25.520Z,4.10
2023-12-03T09:20:27.244Z,4.10
2023-12-03T09:22:28.988Z,4.10
2023-12-03T09:24:30.732Z,4.20
2023-12-03T09:26:32.466Z,4.20
2023-12-03T09:28:35.415Z,4.20
2023-12-03T09:30:37.231Z,4.20
2023-12-03T09:32:39.346Z,4.30
2023-12-03T09:34:41.128Z,4.20
2023-12-03T09:36:42.860Z,4.20
2023-12-03T09:38:44.726Z,4.20
2023-12-03T09:40:48.878Z,4.30
2023-12-03T09:42:52.028Z,4.30
2023-12-03T09:45:05.390Z,4.30
2023-12-03T09:47:07.570Z,4.30
2023-12-03T09:49:10.325Z,4.40
2023-12-03T09:51:13.144Z,4.40
2023-12-03T09:53:16.175Z,4.50
2023-12-03T09:55:18.391Z,4.50
2023-12-03T09:57:20.660Z,4.60
2023-12-03T09:59:22.713Z,4.60
2023-12-03T10:01:25.047Z,4.70
2023-12-03T10:03:26.896Z,4.70
2023-12-03T10:05:28.732Z,4.80
2023-12-03T10:07:31.055Z,4.90
2023-12-03T10:09:33.530Z,4.90
2023-12-03T10:11:41.745Z,5.00
2023-12-03T10:13:43.811Z,5.10
2023-12-03T10:15:45.617Z,5.20
2023-12-03T10:17:47.616Z,5.20
2023-12-03T10:19:49.386Z,5.30
2023-12-03T10:21:51.923Z,5.30
2023-12-03T10:24:00.327Z,5.40
2023-12-03T10:26:09.918Z,5.50
2023-12-03T10:28:11.914Z,5.50
2023-12-03T10:30:13.928Z,5.60
2023-12-03T10:32:15.866Z,5.70
2023-12-03T10:34:18.365Z,5.80
2023-12-03T10:36:20.245Z,5.90
2023-12-03T10:38:22.035Z,5.90
2023-12-03T10:40:23.908Z,6.00
2023-12-03T10:42:25.751Z,6.00
2023-12-03T10:44:29.217Z,6.00
2023-12-03T10:46:31.108Z,6.10
2023-12-03T10:48:35.101Z,6.10
2023-12-03T10:50:37.547Z,6.10
2023-12-03T10:52:40.133Z,6.20
2023-12-03T10:54:42.002Z,6.20
2023-12-03T10:56:44.682Z,6.30
2023-12-03T10:58:47.633Z,6.30
2023-12-03T11:00:52.418Z,6.30
2023-12-03T11:03:09.550Z,6.40
2023-12-03T11:05:15.049Z,6.40
2023-12-03T11:07:19.635Z,6.50
2023-12-03T11:09:21.600Z,6.50
2023-12-03T11:11:23.463Z,6.50
2023-12-03T11:13:32.308Z,6.60
2023-12-03T11:15:38.839Z,6.60
2023-12-03T11:17:45.399Z,6.60
2023-12-03T11:19:55.205Z,6.60
2023-12-03T11:22:13.145Z,6.60
2023-12-03T11:24:14.983Z,6.60
2023-12-03T11:26:17.081Z,6.70
2023-12-03T11:28:19.073Z,6.60
2023-12-03T11:30:44.207Z,6.60
2023-12-03T11:32:49.110Z,6.60
2023-12-03T11:35:01.510Z,6.60
2023-12-03T11:37:08.032Z,6.70
2023-12-03T11:39:11.513Z,6.70
2023-12-03T11:41:13.335Z,6.70
2023-12-03T11:43:27.256Z,6.70
2023-12-03T11:45:30.958Z,6.80
2023-12-03T11:47:33.763Z,6.80
2023-12-03T11:49:36.534Z,6.80
2023-12-03T11:51:38.486Z,6.90
2023-12-03T11:53:40.376Z,7.00
2023-12-03T11:55:44.577Z,7.00
2023-12-03T11:57:46.496Z,7.00
2023-12-03T11:59:48.292Z,7.00
2023-12-03T12:01:50.153Z,7.10
2023-12-03T12:03:52.024Z,7.10
2023-12-03T12:05:53.933Z,7.10
2023-12-03T12:07:58.599Z,7.10
2023-12-03T12:10:00.524Z,7.20
2023-12-03T12:12:02.463Z,7.20
2023-12-03T12:14:04.346Z,7.20
2023-12-03T12:16:06.591Z,7.20
2023-12-03T12:18:08.485Z,7.20
2023-12-03T12:20:19.510Z,7.20
2023-12-03T12:22:24.052Z,7.20
2023-12-03T12:24:26.042Z,7.20
2023-12-03T12:26:30.237Z,7.20
2023-12-03T12:28:32.283Z,7.20
2023-12-03T12:30:36.220Z,7.30
2023-12-03T12:32:38.505Z,7.30
2023-12-03T12:34:40.877Z,7.40
2023-12-03T12:36:45.074Z,7.40
2023-12-03T12:38:46.974Z,7.50
2023-12-03T12:40:53.202Z,7.50
2023-12-03T12:43:24.777Z,7.60
2023-12-03T12:45:27.853Z,7.70
2023-12-03T12:47:36.332Z,7.70
2023-12-03T12:49:44.684Z,7.80
2023-12-03T12:51:46.563Z,7.80
2023-12-03T12:53:57.829Z,7.90
2023-12-03T12:56:00.882Z,7.90
2023-12-03T12:58:03.903Z,7.90
2023-12-03T13:00:07.178Z,7.90
2023-12-03T13:02:09.370Z,7.90
2023-12-03T13:04:11.329Z,7.90
2023-12-03T13:06:13.262Z,7.90
2023-12-03T13:08:15.083Z,7.90
2023-12-03T13:10:16.938Z,7.80
2023-12-03T13:12:18.811Z,7.80
2023-12-03T13:14:20.812Z,7.80
2023-12-03T13:16:22.791Z,7.80
2023-12-03T13:18:26.094Z,7.80
2023-12-03T13:20:29.286Z,7.80
2023-12-03T13:22:31.371Z,7.80
2023-12-03T13:24:33.807Z,7.80
2023-12-03T13:26:36.131Z,7.80
2023-12-03T13:28:37.972Z,7.80
2023-12-03T13:30:39.835Z,7.80
2023-12-03T13:32:42.652Z,7.80
2023-12-03T13:34:44.611Z,7.80
2023-12-03T13:36:46.514Z,7.80
2023-12-03T13:38:48.337Z,7.80
2023-12-03T13:40:50.338Z,7.80
2023-12-03T13:42:53.373Z,7.80
2023-12-03T13:44:55.297Z,7.80
2023-12-03T13:46:58.338Z,7.80
2023-12-03T13:49:01.209Z,7.70
2023-12-03T13:51:03.610Z,7.80
2023-12-03T13:53:05.459Z,7.70
2023-12-03T13:55:07.449Z,7.70
2023-12-03T13:57:09.606Z,7.70
2023-12-03T13:59:11.985Z,7.70
2023-12-03T14:01:14.673Z,7.70
2023-12-03T14:03:16.439Z,7.70
2023-12-03T14:05:23.668Z,7.70
2023-12-03T14:07:27.057Z,7.60
2023-12-03T14:09:28.835Z,7.70
2023-12-03T14:11:31.928Z,7.60
2023-12-03T14:13:33.664Z,7.60
2023-12-03T14:15:35.473Z,7.60
2023-12-03T14:17:37.334Z,7.60
2023-12-03T14:19:39.297Z,7.50
2023-12-03T14:21:42.760Z,7.50
2023-12-03T14:23:44.756Z,7.40
2023-12-03T14:25:46.569Z,7.40
2023-12-03T14:27:48.370Z,7.30
2023-12-03T14:29:53.395Z,7.20
2023-12-03T14:31:55.215Z,7.20
2023-12-03T14:33:57.145Z,7.10
2023-12-03T14:35:58.976Z,7.00
2023-12-03T14:38:00.718Z,7.00
2023-12-03T14:40:02.890Z,6.90
2023-12-03T14:42:04.842Z,6.90
2023-12-03T14:44:07.078Z,6.90
2023-12-03T14:46:09.117Z,6.80
2023-12-03T14:48:10.882Z,6.80
2023-12-03T14:50:13.510Z,6.80
2023-12-03T14:52:15.300Z,6.80
2023-12-03T14:54:21.032Z,6.80
2023-12-03T14:56:30.141Z,6.80
2023-12-03T14:58:31.877Z,6.70
2023-12-03T15:00:33.969Z,6.70
2023-12-03T15:02:35.791Z,6.70
2023-12-03T15:04:39.491Z,6.60
2023-12-03T15:06:43.503Z,6.60
2023-12-03T15:08:48.084Z,6.50
2023-12-03T15:10:49.914Z,6.50
2023-12-03T15:12:51.933Z,6.50
2023-12-03T15:14:53.836Z,6.50
2023-12-03T15:16:55.785Z,6.50
2023-12-03T15:18:57.696Z,6.50
2023-12-03T15:20:59.616Z,6.40
2023-12-03T15:23:01.537Z,6.50
2023-12-03T15:25:03.368Z,6.40
2023-12-03T15:27:05.371Z,6.40
2023-12-03T15:29:07.157Z,6.40
2023-12-03T15:31:09.387Z,6.40
2023-12-03T15:33:11.273Z,6.40
2023-12-03T15:35:13.093Z,6.40
2023-12-03T15:37:14.807Z,6.40
2023-12-03T15:39:16.552Z,6.30
2023-12-03T15:41:19.506Z,6.30
2023-12-03T15:43:29.985Z,6.30
2023-12-03T15:45:41.938Z,6.30
2023-12-03T15:47:47.761Z,6.20
2023-12-03T15:49:49.671Z,6.20
2023-12-03T15:51:51.550Z,6.20
2023-12-03T15:53:53.335Z,6.10
2023-12-03T15:55:58.506Z,6.20
2023-12-03T15:58:00.377Z,6.10
2023-12-03T16:00:02.187Z,6.00
2023-12-03T16:02:13.975Z,6.00
2023-12-03T16:04:16.022Z,6.00
2023-12-03T16:06:17.847Z,6.00
2023-12-03T16:08:19.704Z,5.90
2023-12-03T16:10:21.650Z,5.90
2023-12-03T16:12:23.818Z,5.90
2023-12-03T16:14:26.295Z,5.90
2023-12-03T16:16:29.150Z,5.80
2023-12-03T16:18:31.376Z,5.80
2023-12-03T16:20:33.587Z,5.80
2023-12-03T16:22:35.392Z,5.80
2023-12-03T16:24:37.198Z,5.70
2023-12-03T16:26:38.977Z,5.70
2023-12-03T16:28:40.849Z,5.70
2023-12-03T16:30:42.722Z,5.70
2023-12-03T16:32:45.058Z,5.70
2023-12-03T16:34:49.307Z,5.70
2023-12-03T16:36:51.253Z,5.70
2023-12-03T16:38:52.990Z,5.70
2023-12-03T16:40:56.354Z,5.60
2023-12-03T16:42:58.238Z,5.60
2023-12-03T16:45:00.097Z,5.60
2023-12-03T16:47:02.181Z,5.50
2023-12-03T16:49:04.565Z,5.50
2023-12-03T16:51:06.695Z,5.50
2023-12-03T16:53:08.637Z,5.50
2023-12-03T16:55:10.962Z,5.50
2023-12-03T16:57:13.561Z,5.50
2023-12-03T16:59:16.924Z,5.50
2023-12-03T17:01:19.374Z,5.50
2023-12-03T17:03:24.281Z,5.50
2023-12-03T17:05:26.584Z,5.40
2023-12-03T17:07:28.992Z,5.40
2023-12-03T17:09:30.851Z,5.40
2023-12-03T17:11:32.761Z,5.40
2023-12-03T17:13:34.720Z,5.40
2023-12-03T17:15:37.522Z,5.30
2023-12-03T17:17:39.426Z,5.30
2023-12-03T17:19:41.416Z,5.30
2023-12-03T17:21:43.493Z,5.30
2023-12-03T17:23:45.339Z,5.20
2023-12-03T17:25:48.144Z,5.20
2023-12-03T17:27:51.266Z,5.10
2023-12-03T17:29:54.747Z,5.10
2023-12-03T17:31:56.824Z,5.10
2023-12-03T17:33:58.844Z,5.10
2023-12-03T17:36:00.768Z,5.00
2023-12-03T17:38:02.842Z,5.00
2023-12-03T17:40:06.490Z,5.00
2023-12-03T17:42:09.443Z,5.00
2023-12-03T17:44:11.263Z,4.90
2023-12-03T17:46:13.414Z,4.90
2023-12-03T17:48:15.449Z,4.90
2023-12-03T17:50:17.448Z,4.90
2023-12-03T17:52:19.241Z,4.90
2023-12-03T17:54:21.085Z,4.90
2023-12-03T17:56:23.017Z,4.80
2023-12-03T17:58:24.847Z,4.80
2023-12-03T18:00:28.322Z,4.80
2023-12-03T18:02:30.370Z,4.80
2023-12-03T18:04:32.258Z,4.80
2023-12-03T18:06:35.095Z,4.70
2023-12-03T18:08:37.270Z,4.80
2023-12-03T18:10:39.123Z,4.70
2023-12-03T18:12:41.007Z,4.70
2023-12-03T18:14:42.868Z,4.70
2023-12-03T18:16:44.930Z,4.70
2023-12-03T18:18:46.943Z,4.70
2023-12-03T18:20:48.828Z,4.60
2023-12-03T18:22:50.613Z,4.60
2023-12-03T18:24:52.588Z,4.60
2023-12-03T18:26:54.450Z,4.60
2023-12-03T18:28:56.494Z,4.60
2023-12-03T18:31:01.369Z,4.60
2023-12-03T18:33:05.187Z,4.60
2023-12-03T18:35:07.287Z,4.50
2023-12-03T18:37:11.281Z,4.50
2023-12-03T18:39:13.192Z,4.50
2023-12-03T18:41:19.047Z,4.50
2023-12-03T18:43:21.381Z,4.50
2023-12-03T18:45:24.512Z,4.50
2023-12-03T18:47:27.089Z,4.50
2023-12-03T18:49:29.421Z,4.50
2023-12-03T18:51:33.306Z,4.50
2023-12-03T18:53:36.023Z,4.50
2023-12-03T18:55:39.562Z,4.50
2023-12-03T18:57:43.832Z,4.50
2023-12-03T18:59:46.860Z,4.50
2023-12-03T19:01:49.411Z,4.50
2023-12-03T19:03:53.066Z,4.50
2023-12-03T19:05:56.868Z,4.50
2023-12-03T19:08:01.375Z,4.50
2023-12-03T19:10:03.828Z,4.50
2023-12-03T19:12:05.964Z,4.50
2023-12-03T19:14:08.177Z,4.50
2023-12-03T19:16:13.069Z,4.50
2023-12-03T19:18:17.218Z,4.50
2023-12-03T19:20:19.309Z,4.50
2023-12-03T19:22:22.006Z,4.50
2023-12-03T19:24:23.935Z,4.50
2023-12-03T19:26:28.299Z,4.40
2023-12-03T19:28:30.181Z,4.50
2023-12-03T19:30:32.196Z,4.40
2023-12-03T19:32:34.128Z,4.40
2023-12-03T19:34:36.156Z,4.40
2023-12-03T19:36:38.169Z,4.40
2023-12-03T19:38:40.089Z,4.50
2023-12-03T19:40:41.975Z,4.40
2023-12-03T19:42:43.986Z,4.40
2023-12-03T19:44:52.417Z,4.40
2023-12-03T19:46:58.521Z,4.40
2023-12-03T19:49:00.614Z,4.40
2023-12-03T19:51:02.513Z,4.40
2023-12-03T19:53:04.432Z,4.50
2023-12-03T19:55:06.467Z,4.50
2023-12-03T19:57:09.345Z,4.40
2023-12-03T19:59:12.139Z,4.40
2023-12-03T20:01:15.175Z,4.50
2023-12-03T20:03:16.938Z,4.50
2023-12-03T20:05:19.091Z,4.50
2023-12-03T20:07:23.721Z,4.50
2023-12-03T20:09:25.694Z,4.50
2023-12-03T20:11:27.532Z,4.50
2023-12-03T20:13:35.513Z,4.50
2023-12-03T20:15:41.589Z,4.50
2023-12-03T20:17:44.119Z,4.50
2023-12-03T20:19:46.127Z,4.50
2023-12-03T20:21:48.737Z,4.50
2023-12-03T20:23:50.558Z,4.50
2023-12-03T20:25:55.854Z,4.50
2023-12-03T20:27:57.788Z,4.50
2023-12-03T20:29:59.708Z,4.50
2023-12-03T20:32:01.659Z,4.50
2023-12-03T20:34:04.928Z,4.50
2023-12-03T20:36:09.397Z,4.50
2023-12-03T20:38:11.300Z,4.50
2023-12-03T20:40:13.529Z,4.50
2023-12-03T20:42:15.538Z,4.50
2023-12-03T20:44:17.392Z,4.50
2023-12-03T20:46:19.624Z,4.50
2023-12-03T20:48:21.644Z,4.50
2023-12-03T20:50:25.116Z,4.50
2023-12-03T20:52:27.013Z,4.50
2023-12-03T20:54:29.137Z,4.50
2023-12-03T20:56:31.128Z,4.50
2023-12-03T20:58:33.377Z,4.50
2023-12-03T21:00:35.397Z,4.50
2023-12-03T21:02:37.307Z,4.50
2023-12-03T21:04:39.370Z,4.50
2023-12-03T21:06:41.366Z,4.50
2023-12-03T21:08:43.211Z,4.50
2023-12-03T21:10:45.274Z,4.50
2023-12-03T21:12:47.595Z,4.60
2023-12-03T21:14:49.564Z,4.50
2023-12-03T21:16:51.471Z,4.50
2023-12-03T21:18:53.407Z,4.50
2023-12-03T21:20:55.637Z,4.50
2023-12-03T21:22:57.546Z,4.50
2023-12-03T21:24:59.438Z,4.60
2023-12-03T21:27:01.660Z,4.50
2023-12-03T21:29:03.651Z,4.50
2023-12-03T21:31:05.676Z,4.50
2023-12-03T21:33:08.396Z,4.50
2023-12-03T21:35:10.511Z,4.60
2023-12-03T21:37:13.761Z,4.50
2023-12-03T21:39:16.357Z,4.50
2023-12-03T21:41:18.119Z,4.50
2023-12-03T21:43:21.741Z,4.50
2023-12-03T21:45:24.643Z,4.50
2023-12-03T21:47:26.962Z,4.50
2023-12-03T21:49:29.295Z,4.50
2023-12-03T21:51:33.629Z,4.50
2023-12-03T21:53:35.526Z,4.50
2023-12-03T21:55:37.813Z,4.50
2023-12-03T21:57:39.667Z,4.50
2023-12-03T21:59:41.457Z,4.50
2023-12-03T22:01:43.341Z,4.50
2023-12-03T22:03:45.465Z,4.50
2023-12-03T22:05:47.324Z,4.50
2023-12-03T22:07:49.990Z,4.50
2023-12-03T22:09:51.766Z,4.50
2023-12-03T22:11:53.551Z,4.50
2023-12-03T22:13:55.330Z,4.40
2023-12-03T22:15:57.208Z,4.50
2023-12-03T22:17:59.000Z,4.40
2023-12-03T22:20:00.938Z,4.40
2023-12-03T22:22:02.916Z,4.40
2023-12-03T22:24:04.844Z,4.40
2023-12-03T22:26:06.670Z,4.40
2023-12-03T22:28:08.590Z,4.40
2023-12-03T22:30:15.803Z,4.40
2023-12-03T22:32:18.884Z,4.40
2023-12-03T22:34:20.950Z,4.40
2023-12-03T22:36:22.865Z,4.40
2023-12-03T22:38:24.680Z,4.40
2023-12-03T22:40:27.181Z,4.40
2023-12-03T22:42:29.238Z,4.40
2023-12-03T22:44:32.292Z,4.40
2023-12-03T22:46:34.086Z,4.40
2023-12-03T22:48:37.713Z,4.30
2023-12-03T22:50:39.513Z,4.40
2023-12-03T22:52:41.316Z,4.30
2023-12-03T22:54:43.201Z,4.30
2023-12-03T22:56:45.047Z,4.30
2023-12-03T22:58:46.783Z,4.30
2023-12-03T23:00:48.604Z,4.30
2023-12-03T23:02:50.492Z,4.30
2023-12-03T23:04:52.393Z,4.30
2023-12-03T23:06:54.222Z,4.20
2023-12-03T23:08:56.398Z,4.20
2023-12-03T23:10:58.134Z,4.20
2023-12-03T23:13:00.024Z,4.20
2023-12-03T23:15:01.735Z,4.20
2023-12-03T23:17:03.526Z,4.20
2023-12-03T23:19:05.403Z,4.10
2023-12-03T23:21:07.387Z,4.10
2023-12-03T23:23:09.160Z,4.10
2023-12-03T23:25:10.975Z,4.10
2023-12-03T23:27:17.367Z,4.10
2023-12-03T23:29:21.600Z,4.10
2023-12-03T23:31:23.375Z,4.10
2023-12-03T23:33:25.281Z,4.10
2023-12-03T23:35:27.096Z,4.10
2023-12-03T23:37:29.194Z,4.10
2023-12-03T23:39:31.137Z,4.10
2023-12-03T23:41:32.958Z,4.10
2023-12-03T23:43:34.746Z,4.10
2023-12-03T23:45:36.477Z,4.10
2023-12-03T23:47:38.309Z,4.10
2023-12-03T23:49:40.492Z,4.10
2023-12-03T23:51:42.503Z,4.10
2023-12-03T23:53:44.635Z,4.10
2023-12-03T23:55:46.400Z,4.10
2023-12-03T23:57:48.217Z,4.10
2023-12-03T23:59:49.968Z,4.10
